Porth, United Kingdom
Current Conditions -  °F | °C
As of 5:50 PM on Sunday 25 Jan 2015 (Local Time) from EGDX Reporting Station
Broken Clouds Broken Clouds  
Wind Chill: 41°   Ceiling: 1000
Heat Index: 46°   Visibility: 6mi
Dew Point: 46°   Wind: 13mph
Humidity: 100%   Direction: 260°W
Pressure: 30.33"   Gusts: NA
Location:  51.62°N, 3.41°W
Report Text: EGDX 251750Z AUTO 26011KT 9999 BKN010/// 08/08 Q1027 REDZ
Loading
Personal Weather Stations






























Interactive Weather Map New forecast layout! Learn more

10-Day Weather Forecast

Advertisements
Track Severe Weather on mobile